sensor_id;sensor_type;location;lat;lon;timestamp;P1;durP1;ratioP1;P2;durP2;ratioP2
17251;SDS011;8742;51.716;8.790;2024-01-11T00:02:16;35.50;;;14.67;;
17251;SDS011;8742;51.716;8.790;2024-01-11T00:04:43;34.60;;;13.30;;
17251;SDS011;8742;51.716;8.790;2024-01-11T00:07:10;33.23;;;12.87;;
17251;SDS011;8742;51.716;8.790;2024-01-11T00:09:38;37.77;;;13.97;;
17251;SDS011;8742;51.716;8.790;2024-01-11T00:12:06;42.70;;;15.33;;
17251;SDS011;8742;51.716;8.790;2024-01-11T00:14:33;42.07;;;14.50;;
17251;SDS011;8742;51.716;8.790;2024-01-11T00:17:00;39.17;;;15.07;;
17251;SDS011;8742;51.716;8.790;2024-01-11T00:19:28;42.87;;;15.10;;
17251;SDS011;8742;51.716;8.790;2024-01-11T00:21:55;42.80;;;14.87;;
17251;SDS011;8742;51.716;8.790;2024-01-11T00:24:22;37.70;;;14.77;;
17251;SDS011;8742;51.716;8.790;2024-01-11T00:26:48;37.43;;;14.90;;
17251;SDS011;8742;51.716;8.790;2024-01-11T00:29:15;41.67;;;14.80;;
17251;SDS011;8742;51.716;8.790;2024-01-11T00:31:42;38.23;;;14.67;;
17251;SDS011;8742;51.716;8.790;2024-01-11T00:34:09;40.40;;;14.33;;
17251;SDS011;8742;51.716;8.790;2024-01-11T00:36:37;38.43;;;14.77;;
17251;SDS011;8742;51.716;8.790;2024-01-11T00:39:04;42.90;;;14.50;;
17251;SDS011;8742;51.716;8.790;2024-01-11T00:41:31;38.80;;;15.53;;
17251;SDS011;8742;51.716;8.790;2024-01-11T00:43:58;40.93;;;14.73;;
17251;SDS011;8742;51.716;8.790;2024-01-11T00:46:25;41.77;;;14.83;;
17251;SDS011;8742;51.716;8.790;2024-01-11T00:48:52;41.10;;;15.50;;
17251;SDS011;8742;51.716;8.790;2024-01-11T00:51:18;41.13;;;15.20;;
17251;SDS011;8742;51.716;8.790;2024-01-11T00:53:47;39.00;;;14.77;;
17251;SDS011;8742;51.716;8.790;2024-01-11T00:56:16;45.33;;;16.23;;
17251;SDS011;8742;51.716;8.790;2024-01-11T00:58:43;50.73;;;17.03;;
17251;SDS011;8742;51.716;8.790;2024-01-11T01:01:10;46.17;;;17.43;;
17251;SDS011;8742;51.716;8.790;2024-01-11T01:03:38;37.57;;;15.30;;
17251;SDS011;8742;51.716;8.790;2024-01-11T01:06:05;49.27;;;16.03;;
17251;SDS011;8742;51.716;8.790;2024-01-11T01:08:32;42.77;;;16.23;;
17251;SDS011;8742;51.716;8.790;2024-01-11T01:11:01;46.87;;;16.43;;
17251;SDS011;8742;51.716;8.790;2024-01-11T01:13:28;44.80;;;16.13;;
17251;SDS011;8742;51.716;8.790;2024-01-11T01:15:54;44.50;;;16.53;;
17251;SDS011;8742;51.716;8.790;2024-01-11T01:18:21;45.87;;;17.30;;
17251;SDS011;8742;51.716;8.790;2024-01-11T01:20:48;41.90;;;16.10;;
17251;SDS011;8742;51.716;8.790;2024-01-11T01:23:15;39.53;;;15.37;;
17251;SDS011;8742;51.716;8.790;2024-01-11T01:25:43;47.13;;;17.63;;
17251;SDS011;8742;51.716;8.790;2024-01-11T01:28:11;44.37;;;16.27;;
17251;SDS011;8742;51.716;8.790;2024-01-11T01:30:38;38.80;;;16.57;;
17251;SDS011;8742;51.716;8.790;2024-01-11T01:33:04;46.10;;;18.23;;
17251;SDS011;8742;51.716;8.790;2024-01-11T01:35:31;46.07;;;17.90;;
17251;SDS011;8742;51.716;8.790;2024-01-11T01:37:59;38.13;;;16.60;;
17251;SDS011;8742;51.716;8.790;2024-01-11T01:40:27;49.00;;;17.07;;
17251;SDS011;8742;51.716;8.790;2024-01-11T01:42:57;46.43;;;17.63;;
17251;SDS011;8742;51.716;8.790;2024-01-11T01:45:26;50.03;;;18.40;;
17251;SDS011;8742;51.716;8.790;2024-01-11T01:47:53;47.83;;;17.13;;
17251;SDS011;8742;51.716;8.790;2024-01-11T01:50:20;47.17;;;17.53;;
17251;SDS011;8742;51.716;8.790;2024-01-11T01:52:47;46.67;;;16.60;;
17251;SDS011;8742;51.716;8.790;2024-01-11T01:55:16;47.50;;;17.30;;
17251;SDS011;8742;51.716;8.790;2024-01-11T01:57:45;50.87;;;16.73;;
17251;SDS011;8742;51.716;8.790;2024-01-11T02:00:13;48.97;;;17.73;;
17251;SDS011;8742;51.716;8.790;2024-01-11T02:02:41;54.63;;;18.03;;
17251;SDS011;8742;51.716;8.790;2024-01-11T02:05:10;48.13;;;17.23;;
17251;SDS011;8742;51.716;8.790;2024-01-11T02:07:38;49.00;;;17.57;;
17251;SDS011;8742;51.716;8.790;2024-01-11T02:10:07;46.40;;;17.37;;
17251;SDS011;8742;51.716;8.790;2024-01-11T02:12:35;45.60;;;17.17;;
17251;SDS011;8742;51.716;8.790;2024-01-11T02:15:03;48.90;;;17.80;;
17251;SDS011;8742;51.716;8.790;2024-01-11T02:17:30;56.80;;;17.73;;
17251;SDS011;8742;51.716;8.790;2024-01-11T02:19:59;48.83;;;16.70;;
17251;SDS011;8742;51.716;8.790;2024-01-11T02:22:28;49.30;;;17.37;;
17251;SDS011;8742;51.716;8.790;2024-01-11T02:25:00;45.37;;;16.57;;
17251;SDS011;8742;51.716;8.790;2024-01-11T02:27:27;54.40;;;18.27;;
17251;SDS011;8742;51.716;8.790;2024-01-11T02:29:54;46.13;;;16.57;;
17251;SDS011;8742;51.716;8.790;2024-01-11T02:32:21;57.30;;;19.03;;
17251;SDS011;8742;51.716;8.790;2024-01-11T02:34:48;49.23;;;17.87;;
17251;SDS011;8742;51.716;8.790;2024-01-11T02:37:15;48.33;;;17.43;;
17251;SDS011;8742;51.716;8.790;2024-01-11T02:39:43;48.67;;;17.77;;
17251;SDS011;8742;51.716;8.790;2024-01-11T02:42:11;50.00;;;17.17;;
17251;SDS011;8742;51.716;8.790;2024-01-11T02:44:38;46.70;;;17.27;;
17251;SDS011;8742;51.716;8.790;2024-01-11T02:47:05;44.07;;;16.53;;
17251;SDS011;8742;51.716;8.790;2024-01-11T02:49:32;52.67;;;17.20;;
17251;SDS011;8742;51.716;8.790;2024-01-11T02:51:59;50.40;;;18.83;;
17251;SDS011;8742;51.716;8.790;2024-01-11T02:54:26;59.97;;;18.77;;
17251;SDS011;8742;51.716;8.790;2024-01-11T02:56:53;51.00;;;18.13;;
17251;SDS011;8742;51.716;8.790;2024-01-11T02:59:23;44.30;;;16.57;;
17251;SDS011;8742;51.716;8.790;2024-01-11T03:01:49;55.23;;;17.57;;
17251;SDS011;8742;51.716;8.790;2024-01-11T03:04:16;49.87;;;17.23;;
17251;SDS011;8742;51.716;8.790;2024-01-11T03:06:43;46.17;;;17.60;;
17251;SDS011;8742;51.716;8.790;2024-01-11T03:09:10;49.27;;;18.07;;
17251;SDS011;8742;51.716;8.790;2024-01-11T03:11:37;56.93;;;19.40;;
17251;SDS011;8742;51.716;8.790;2024-01-11T03:14:04;54.80;;;18.73;;
17251;SDS011;8742;51.716;8.790;2024-01-11T03:16:33;48.77;;;17.67;;
17251;SDS011;8742;51.716;8.790;2024-01-11T03:19:13;53.70;;;18.03;;
17251;SDS011;8742;51.716;8.790;2024-01-11T03:21:40;48.07;;;18.13;;
17251;SDS011;8742;51.716;8.790;2024-01-11T03:24:08;66.30;;;18.93;;
17251;SDS011;8742;51.716;8.790;2024-01-11T03:26:35;53.07;;;17.77;;
17251;SDS011;8742;51.716;8.790;2024-01-11T03:29:02;51.33;;;18.83;;
17251;SDS011;8742;51.716;8.790;2024-01-11T03:31:29;54.77;;;18.33;;
17251;SDS011;8742;51.716;8.790;2024-01-11T03:33:58;52.60;;;18.90;;
17251;SDS011;8742;51.716;8.790;2024-01-11T03:36:25;46.53;;;17.57;;
17251;SDS011;8742;51.716;8.790;2024-01-11T03:38:52;49.70;;;18.33;;
17251;SDS011;8742;51.716;8.790;2024-01-11T03:41:19;49.87;;;17.27;;
17251;SDS011;8742;51.716;8.790;2024-01-11T03:43:58;60.73;;;19.20;;
17251;SDS011;8742;51.716;8.790;2024-01-11T03:46:25;51.63;;;18.27;;
17251;SDS011;8742;51.716;8.790;2024-01-11T03:48:52;44.67;;;17.43;;
17251;SDS011;8742;51.716;8.790;2024-01-11T03:51:22;46.10;;;17.17;;
17251;SDS011;8742;51.716;8.790;2024-01-11T03:53:49;51.00;;;17.87;;
17251;SDS011;8742;51.716;8.790;2024-01-11T03:56:16;47.67;;;18.50;;
17251;SDS011;8742;51.716;8.790;2024-01-11T03:58:42;54.67;;;19.23;;
17251;SDS011;8742;51.716;8.790;2024-01-11T04:01:10;44.93;;;17.03;;
17251;SDS011;8742;51.716;8.790;2024-01-11T04:03:37;58.50;;;18.87;;
17251;SDS011;8742;51.716;8.790;2024-01-11T04:06:04;55.90;;;18.83;;
17251;SDS011;8742;51.716;8.790;2024-01-11T04:08:44;52.67;;;18.13;;
17251;SDS011;8742;51.716;8.790;2024-01-11T04:11:11;49.27;;;18.17;;
17251;SDS011;8742;51.716;8.790;2024-01-11T04:13:39;51.40;;;18.47;;
17251;SDS011;8742;51.716;8.790;2024-01-11T04:16:06;45.63;;;18.53;;
17251;SDS011;8742;51.716;8.790;2024-01-11T04:18:33;48.70;;;17.87;;
17251;SDS011;8742;51.716;8.790;2024-01-11T04:21:01;49.97;;;17.90;;
17251;SDS011;8742;51.716;8.790;2024-01-11T04:23:28;50.63;;;19.77;;
17251;SDS011;8742;51.716;8.790;2024-01-11T04:25:56;47.30;;;18.67;;
17251;SDS011;8742;51.716;8.790;2024-01-11T04:28:23;49.87;;;19.07;;
17251;SDS011;8742;51.716;8.790;2024-01-11T04:30:52;50.13;;;18.43;;
17251;SDS011;8742;51.716;8.790;2024-01-11T04:33:30;48.60;;;18.50;;
17251;SDS011;8742;51.716;8.790;2024-01-11T04:35:57;46.53;;;17.67;;
17251;SDS011;8742;51.716;8.790;2024-01-11T04:38:24;57.20;;;19.60;;
17251;SDS011;8742;51.716;8.790;2024-01-11T04:40:51;52.67;;;18.77;;
17251;SDS011;8742;51.716;8.790;2024-01-11T04:43:19;59.50;;;20.13;;
17251;SDS011;8742;51.716;8.790;2024-01-11T04:45:46;51.13;;;17.43;;
17251;SDS011;8742;51.716;8.790;2024-01-11T04:48:13;55.33;;;18.67;;
17251;SDS011;8742;51.716;8.790;2024-01-11T04:50:40;50.80;;;18.60;;
17251;SDS011;8742;51.716;8.790;2024-01-11T04:53:08;55.70;;;18.23;;
17251;SDS011;8742;51.716;8.790;2024-01-11T04:55:36;57.60;;;19.70;;
17251;SDS011;8742;51.716;8.790;2024-01-11T04:58:17;55.30;;;18.63;;
17251;SDS011;8742;51.716;8.790;2024-01-11T05:00:45;46.60;;;17.83;;
17251;SDS011;8742;51.716;8.790;2024-01-11T05:03:12;52.40;;;18.63;;
17251;SDS011;8742;51.716;8.790;2024-01-11T05:05:39;50.57;;;17.97;;
17251;SDS011;8742;51.716;8.790;2024-01-11T05:08:06;50.67;;;17.83;;
17251;SDS011;8742;51.716;8.790;2024-01-11T05:10:35;53.63;;;19.33;;
17251;SDS011;8742;51.716;8.790;2024-01-11T05:13:02;49.90;;;18.10;;
17251;SDS011;8742;51.716;8.790;2024-01-11T05:15:29;49.60;;;18.00;;
17251;SDS011;8742;51.716;8.790;2024-01-11T05:17:58;45.00;;;17.13;;
17251;SDS011;8742;51.716;8.790;2024-01-11T05:20:25;51.80;;;17.47;;
17251;SDS011;8742;51.716;8.790;2024-01-11T05:23:03;47.17;;;16.93;;
17251;SDS011;8742;51.716;8.790;2024-01-11T05:25:32;46.77;;;17.73;;
17251;SDS011;8742;51.716;8.790;2024-01-11T05:27:59;35.43;;;13.57;;
17251;SDS011;8742;51.716;8.790;2024-01-11T05:30:26;34.27;;;12.73;;
17251;SDS011;8742;51.716;8.790;2024-01-11T05:32:53;40.20;;;14.57;;
17251;SDS011;8742;51.716;8.790;2024-01-11T05:35:22;28.43;;;11.80;;
17251;SDS011;8742;51.716;8.790;2024-01-11T05:37:52;37.60;;;12.23;;
17251;SDS011;8742;51.716;8.790;2024-01-11T05:40:19;38.10;;;12.53;;
17251;SDS011;8742;51.716;8.790;2024-01-11T05:42:47;45.63;;;15.63;;
17251;SDS011;8742;51.716;8.790;2024-01-11T05:45:25;45.17;;;17.37;;
17251;SDS011;8742;51.716;8.790;2024-01-11T05:47:52;49.97;;;17.87;;
17251;SDS011;8742;51.716;8.790;2024-01-11T05:50:18;46.00;;;16.83;;
17251;SDS011;8742;51.716;8.790;2024-01-11T05:52:47;47.63;;;17.33;;
17251;SDS011;8742;51.716;8.790;2024-01-11T05:55:14;46.70;;;15.97;;
17251;SDS011;8742;51.716;8.790;2024-01-11T05:57:41;42.00;;;16.20;;
17251;SDS011;8742;51.716;8.790;2024-01-11T06:00:08;41.67;;;15.80;;
17251;SDS011;8742;51.716;8.790;2024-01-11T06:02:36;44.57;;;17.20;;
17251;SDS011;8742;51.716;8.790;2024-01-11T06:05:03;48.37;;;16.10;;
17251;SDS011;8742;51.716;8.790;2024-01-11T06:07:34;47.23;;;16.80;;
17251;SDS011;8742;51.716;8.790;2024-01-11T06:10:16;46.10;;;18.23;;
17251;SDS011;8742;51.716;8.790;2024-01-11T06:12:43;50.40;;;18.63;;
17251;SDS011;8742;51.716;8.790;2024-01-11T06:15:09;50.70;;;17.77;;
17251;SDS011;8742;51.716;8.790;2024-01-11T06:17:36;57.03;;;18.73;;
17251;SDS011;8742;51.716;8.790;2024-01-11T06:20:03;44.77;;;17.07;;
17251;SDS011;8742;51.716;8.790;2024-01-11T06:22:31;56.30;;;18.17;;
17251;SDS011;8742;51.716;8.790;2024-01-11T06:24:58;42.53;;;17.23;;
17251;SDS011;8742;51.716;8.790;2024-01-11T06:27:27;53.47;;;18.03;;
17251;SDS011;8742;51.716;8.790;2024-01-11T06:29:54;50.03;;;16.50;;
17251;SDS011;8742;51.716;8.790;2024-01-11T06:32:20;44.60;;;16.70;;
17251;SDS011;8742;51.716;8.790;2024-01-11T06:34:51;47.67;;;17.77;;
17251;SDS011;8742;51.716;8.790;2024-01-11T06:37:18;41.97;;;17.00;;
17251;SDS011;8742;51.716;8.790;2024-01-11T06:39:45;46.70;;;17.43;;
17251;SDS011;8742;51.716;8.790;2024-01-11T06:42:12;51.07;;;17.07;;
17251;SDS011;8742;51.716;8.790;2024-01-11T06:44:42;40.97;;;17.10;;
17251;SDS011;8742;51.716;8.790;2024-01-11T06:47:09;49.67;;;17.47;;
17251;SDS011;8742;51.716;8.790;2024-01-11T06:49:38;45.57;;;16.63;;
17251;SDS011;8742;51.716;8.790;2024-01-11T06:52:05;51.53;;;16.27;;
17251;SDS011;8742;51.716;8.790;2024-01-11T06:54:32;53.27;;;16.90;;
17251;SDS011;8742;51.716;8.790;2024-01-11T06:56:59;40.97;;;16.53;;
17251;SDS011;8742;51.716;8.790;2024-01-11T06:59:26;49.07;;;19.33;;
17251;SDS011;8742;51.716;8.790;2024-01-11T07:02:05;49.70;;;18.30;;
17251;SDS011;8742;51.716;8.790;2024-01-11T07:04:32;51.27;;;18.23;;
17251;SDS011;8742;51.716;8.790;2024-01-11T07:06:59;52.10;;;21.80;;
17251;SDS011;8742;51.716;8.790;2024-01-11T07:09:27;51.60;;;16.70;;
17251;SDS011;8742;51.716;8.790;2024-01-11T07:11:54;52.67;;;17.23;;
17251;SDS011;8742;51.716;8.790;2024-01-11T07:14:21;45.73;;;16.17;;
17251;SDS011;8742;51.716;8.790;2024-01-11T07:16:48;47.63;;;16.97;;
17251;SDS011;8742;51.716;8.790;2024-01-11T07:19:17;49.33;;;17.33;;
17251;SDS011;8742;51.716;8.790;2024-01-11T07:21:44;45.23;;;14.77;;
17251;SDS011;8742;51.716;8.790;2024-01-11T07:24:11;51.73;;;17.97;;
17251;SDS011;8742;51.716;8.790;2024-01-11T07:26:38;45.20;;;17.90;;
17251;SDS011;8742;51.716;8.790;2024-01-11T07:29:20;48.63;;;16.67;;
17251;SDS011;8742;51.716;8.790;2024-01-11T07:31:48;46.53;;;16.77;;
17251;SDS011;8742;51.716;8.790;2024-01-11T07:34:25;38.27;;;16.23;;
17251;SDS011;8742;51.716;8.790;2024-01-11T07:36:52;48.03;;;17.77;;
17251;SDS011;8742;51.716;8.790;2024-01-11T07:39:19;64.50;;;21.50;;
17251;SDS011;8742;51.716;8.790;2024-01-11T07:41:47;51.17;;;19.17;;
17251;SDS011;8742;51.716;8.790;2024-01-11T07:44:14;51.93;;;18.73;;
17251;SDS011;8742;51.716;8.790;2024-01-11T07:46:42;54.10;;;20.20;;
17251;SDS011;8742;51.716;8.790;2024-01-11T07:49:09;56.43;;;20.43;;
17251;SDS011;8742;51.716;8.790;2024-01-11T07:51:37;53.00;;;19.80;;
17251;SDS011;8742;51.716;8.790;2024-01-11T07:54:04;49.40;;;19.30;;
17251;SDS011;8742;51.716;8.790;2024-01-11T07:56:31;59.20;;;20.43;;
17251;SDS011;8742;51.716;8.790;2024-01-11T07:58:58;49.40;;;18.30;;
17251;SDS011;8742;51.716;8.790;2024-01-11T08:01:25;61.13;;;20.17;;
17251;SDS011;8742;51.716;8.790;2024-01-11T08:03:52;57.50;;;20.90;;
17251;SDS011;8742;51.716;8.790;2024-01-11T08:06:19;47.57;;;20.40;;
17251;SDS011;8742;51.716;8.790;2024-01-11T08:08:47;59.37;;;20.60;;
17251;SDS011;8742;51.716;8.790;2024-01-11T08:11:16;52.17;;;20.83;;
17251;SDS011;8742;51.716;8.790;2024-01-11T08:13:43;47.80;;;20.77;;
17251;SDS011;8742;51.716;8.790;2024-01-11T08:16:15;50.07;;;19.90;;
17251;SDS011;8742;51.716;8.790;2024-01-11T08:18:43;55.07;;;20.70;;
17251;SDS011;8742;51.716;8.790;2024-01-11T08:21:10;58.03;;;19.73;;
17251;SDS011;8742;51.716;8.790;2024-01-11T08:23:39;47.90;;;19.03;;
17251;SDS011;8742;51.716;8.790;2024-01-11T08:26:10;51.37;;;19.90;;
17251;SDS011;8742;51.716;8.790;2024-01-11T08:28:37;50.90;;;18.20;;
17251;SDS011;8742;51.716;8.790;2024-01-11T08:31:05;49.97;;;19.10;;
17251;SDS011;8742;51.716;8.790;2024-01-11T08:33:35;48.40;;;18.43;;
17251;SDS011;8742;51.716;8.790;2024-01-11T08:36:02;61.33;;;19.53;;
17251;SDS011;8742;51.716;8.790;2024-01-11T08:38:29;57.10;;;20.97;;
17251;SDS011;8742;51.716;8.790;2024-01-11T08:40:57;64.40;;;21.47;;
17251;SDS011;8742;51.716;8.790;2024-01-11T08:43:41;66.27;;;22.23;;
17251;SDS011;8742;51.716;8.790;2024-01-11T08:46:08;70.93;;;22.87;;
17251;SDS011;8742;51.716;8.790;2024-01-11T08:48:35;59.37;;;22.43;;
17251;SDS011;8742;51.716;8.790;2024-01-11T08:51:02;58.37;;;22.13;;
17251;SDS011;8742;51.716;8.790;2024-01-11T08:53:29;65.67;;;22.63;;
17251;SDS011;8742;51.716;8.790;2024-01-11T08:55:56;60.40;;;23.73;;
17251;SDS011;8742;51.716;8.790;2024-01-11T08:58:23;67.10;;;24.97;;
17251;SDS011;8742;51.716;8.790;2024-01-11T09:00:51;49.53;;;21.93;;
17251;SDS011;8742;51.716;8.790;2024-01-11T09:03:18;48.10;;;19.00;;
17251;SDS011;8742;51.716;8.790;2024-01-11T09:05:45;46.07;;;19.00;;
17251;SDS011;8742;51.716;8.790;2024-01-11T09:08:11;46.93;;;20.23;;
17251;SDS011;8742;51.716;8.790;2024-01-11T09:10:38;43.97;;;18.23;;
17251;SDS011;8742;51.716;8.790;2024-01-11T09:13:06;44.53;;;19.20;;
17251;SDS011;8742;51.716;8.790;2024-01-11T09:15:33;47.83;;;18.83;;
17251;SDS011;8742;51.716;8.790;2024-01-11T09:18:01;45.27;;;17.30;;
17251;SDS011;8742;51.716;8.790;2024-01-11T09:20:28;48.67;;;20.07;;
17251;SDS011;8742;51.716;8.790;2024-01-11T09:22:55;47.77;;;19.37;;
17251;SDS011;8742;51.716;8.790;2024-01-11T09:25:22;48.17;;;20.93;;
17251;SDS011;8742;51.716;8.790;2024-01-11T09:27:49;41.60;;;18.33;;
17251;SDS011;8742;51.716;8.790;2024-01-11T09:30:15;40.93;;;18.50;;
17251;SDS011;8742;51.716;8.790;2024-01-11T09:32:42;42.27;;;18.57;;
17251;SDS011;8742;51.716;8.790;2024-01-11T09:35:10;41.23;;;18.33;;
17251;SDS011;8742;51.716;8.790;2024-01-11T09:37:38;45.20;;;18.30;;
17251;SDS011;8742;51.716;8.790;2024-01-11T09:40:05;52.40;;;19.80;;
17251;SDS011;8742;51.716;8.790;2024-01-11T09:42:35;43.53;;;19.00;;
17251;SDS011;8742;51.716;8.790;2024-01-11T09:45:02;42.87;;;18.40;;
17251;SDS011;8742;51.716;8.790;2024-01-11T09:47:33;43.37;;;18.03;;
17251;SDS011;8742;51.716;8.790;2024-01-11T09:50:02;41.63;;;18.20;;
17251;SDS011;8742;51.716;8.790;2024-01-11T09:52:31;44.20;;;18.40;;
17251;SDS011;8742;51.716;8.790;2024-01-11T09:54:58;46.53;;;20.80;;
17251;SDS011;8742;51.716;8.790;2024-01-11T09:57:28;42.57;;;17.97;;
17251;SDS011;8742;51.716;8.790;2024-01-11T09:59:57;44.37;;;19.10;;
17251;SDS011;8742;51.716;8.790;2024-01-11T10:02:25;42.17;;;19.70;;
17251;SDS011;8742;51.716;8.790;2024-01-11T10:04:52;43.33;;;19.37;;
17251;SDS011;8742;51.716;8.790;2024-01-11T10:07:19;41.53;;;19.03;;
17251;SDS011;8742;51.716;8.790;2024-01-11T10:09:50;40.77;;;19.17;;
17251;SDS011;8742;51.716;8.790;2024-01-11T10:12:17;40.00;;;19.03;;
17251;SDS011;8742;51.716;8.790;2024-01-11T10:14:45;38.90;;;19.30;;
17251;SDS011;8742;51.716;8.790;2024-01-11T10:17:12;37.80;;;19.37;;
17251;SDS011;8742;51.716;8.790;2024-01-11T10:19:39;42.87;;;19.83;;
17251;SDS011;8742;51.716;8.790;2024-01-11T10:22:06;41.60;;;20.30;;
17251;SDS011;8742;51.716;8.790;2024-01-11T10:24:32;36.87;;;19.70;;
17251;SDS011;8742;51.716;8.790;2024-01-11T10:27:01;42.30;;;20.00;;
17251;SDS011;8742;51.716;8.790;2024-01-11T10:29:30;40.37;;;19.83;;
17251;SDS011;8742;51.716;8.790;2024-01-11T10:31:57;42.93;;;19.73;;
17251;SDS011;8742;51.716;8.790;2024-01-11T10:34:23;40.87;;;20.40;;
17251;SDS011;8742;51.716;8.790;2024-01-11T10:36:50;44.37;;;21.27;;
17251;SDS011;8742;51.716;8.790;2024-01-11T10:39:17;40.30;;;20.50;;
17251;SDS011;8742;51.716;8.790;2024-01-11T10:41:50;44.30;;;21.50;;
17251;SDS011;8742;51.716;8.790;2024-01-11T10:44:20;46.37;;;20.67;;
17251;SDS011;8742;51.716;8.790;2024-01-11T10:46:48;41.60;;;20.50;;
17251;SDS011;8742;51.716;8.790;2024-01-11T10:49:16;40.57;;;21.73;;
17251;SDS011;8742;51.716;8.790;2024-01-11T10:51:45;43.80;;;22.20;;
17251;SDS011;8742;51.716;8.790;2024-01-11T10:54:27;41.93;;;20.80;;
17251;SDS011;8742;51.716;8.790;2024-01-11T10:56:56;42.83;;;21.10;;
17251;SDS011;8742;51.716;8.790;2024-01-11T10:59:26;44.43;;;21.43;;
17251;SDS011;8742;51.716;8.790;2024-01-11T11:01:55;38.37;;;21.03;;
17251;SDS011;8742;51.716;8.790;2024-01-11T11:04:24;43.57;;;21.73;;
17251;SDS011;8742;51.716;8.790;2024-01-11T11:06:54;44.83;;;21.97;;
17251;SDS011;8742;51.716;8.790;2024-01-11T11:09:22;44.60;;;22.80;;
17251;SDS011;8742;51.716;8.790;2024-01-11T11:11:51;43.27;;;23.43;;
17251;SDS011;8742;51.716;8.790;2024-01-11T11:14:22;41.53;;;22.10;;
17251;SDS011;8742;51.716;8.790;2024-01-11T11:16:52;42.47;;;22.57;;
17251;SDS011;8742;51.716;8.790;2024-01-11T11:19:19;40.13;;;21.73;;
17251;SDS011;8742;51.716;8.790;2024-01-11T11:21:47;44.73;;;23.23;;
17251;SDS011;8742;51.716;8.790;2024-01-11T11:24:16;47.03;;;22.73;;
17251;SDS011;8742;51.716;8.790;2024-01-11T11:26:43;47.17;;;22.43;;
17251;SDS011;8742;51.716;8.790;2024-01-11T11:29:10;42.87;;;23.17;;
17251;SDS011;8742;51.716;8.790;2024-01-11T11:31:37;45.63;;;22.03;;
17251;SDS011;8742;51.716;8.790;2024-01-11T11:34:11;44.37;;;23.53;;
17251;SDS011;8742;51.716;8.790;2024-01-11T11:36:39;45.47;;;23.23;;
17251;SDS011;8742;51.716;8.790;2024-01-11T11:39:09;40.90;;;23.07;;
17251;SDS011;8742;51.716;8.790;2024-01-11T11:41:37;47.97;;;23.00;;
17251;SDS011;8742;51.716;8.790;2024-01-11T11:44:05;40.67;;;24.03;;
17251;SDS011;8742;51.716;8.790;2024-01-11T11:46:32;47.03;;;25.13;;
17251;SDS011;8742;51.716;8.790;2024-01-11T11:48:59;47.67;;;25.07;;
17251;SDS011;8742;51.716;8.790;2024-01-11T11:51:28;47.57;;;24.77;;
17251;SDS011;8742;51.716;8.790;2024-01-11T11:53:55;48.33;;;24.90;;
17251;SDS011;8742;51.716;8.790;2024-01-11T11:56:23;46.17;;;24.37;;
17251;SDS011;8742;51.716;8.790;2024-01-11T11:58:51;43.27;;;25.07;;
17251;SDS011;8742;51.716;8.790;2024-01-11T12:01:19;48.37;;;23.87;;
17251;SDS011;8742;51.716;8.790;2024-01-11T12:03:47;45.83;;;24.63;;
17251;SDS011;8742;51.716;8.790;2024-01-11T12:06:15;47.57;;;23.30;;
17251;SDS011;8742;51.716;8.790;2024-01-11T12:08:45;52.33;;;23.87;;
17251;SDS011;8742;51.716;8.790;2024-01-11T12:11:13;45.57;;;25.17;;
17251;SDS011;8742;51.716;8.790;2024-01-11T12:13:40;50.23;;;24.90;;
17251;SDS011;8742;51.716;8.790;2024-01-11T12:16:09;43.23;;;23.40;;
17251;SDS011;8742;51.716;8.790;2024-01-11T12:18:37;43.13;;;24.40;;
17251;SDS011;8742;51.716;8.790;2024-01-11T12:21:03;50.67;;;24.87;;
17251;SDS011;8742;51.716;8.790;2024-01-11T12:23:31;44.77;;;24.70;;
17251;SDS011;8742;51.716;8.790;2024-01-11T12:25:59;42.47;;;23.97;;
17251;SDS011;8742;51.716;8.790;2024-01-11T12:28:29;43.33;;;24.97;;
17251;SDS011;8742;51.716;8.790;2024-01-11T12:30:57;50.23;;;24.63;;
17251;SDS011;8742;51.716;8.790;2024-01-11T12:33:25;42.77;;;25.43;;
17251;SDS011;8742;51.716;8.790;2024-01-11T12:35:53;42.63;;;23.87;;
17251;SDS011;8742;51.716;8.790;2024-01-11T12:38:20;42.20;;;24.73;;
17251;SDS011;8742;51.716;8.790;2024-01-11T12:40:46;49.03;;;24.60;;
17251;SDS011;8742;51.716;8.790;2024-01-11T12:43:15;46.30;;;23.83;;
17251;SDS011;8742;51.716;8.790;2024-01-11T12:45:43;42.93;;;25.07;;
17251;SDS011;8742;51.716;8.790;2024-01-11T12:48:10;45.03;;;24.93;;
17251;SDS011;8742;51.716;8.790;2024-01-11T12:50:39;44.80;;;25.13;;
17251;SDS011;8742;51.716;8.790;2024-01-11T12:53:07;51.03;;;25.67;;
17251;SDS011;8742;51.716;8.790;2024-01-11T12:55:34;48.10;;;26.37;;
17251;SDS011;8742;51.716;8.790;2024-01-11T12:58:07;45.97;;;26.13;;
17251;SDS011;8742;51.716;8.790;2024-01-11T13:00:36;51.47;;;26.37;;
17251;SDS011;8742;51.716;8.790;2024-01-11T13:03:04;48.90;;;25.10;;
17251;SDS011;8742;51.716;8.790;2024-01-11T13:05:31;48.27;;;24.53;;
17251;SDS011;8742;51.716;8.790;2024-01-11T13:08:00;47.83;;;25.27;;
17251;SDS011;8742;51.716;8.790;2024-01-11T13:10:29;50.83;;;23.07;;
17251;SDS011;8742;51.716;8.790;2024-01-11T13:12:57;46.03;;;24.30;;
17251;SDS011;8742;51.716;8.790;2024-01-11T13:15:25;50.20;;;23.53;;
17251;SDS011;8742;51.716;8.790;2024-01-11T13:17:55;46.00;;;23.57;;
17251;SDS011;8742;51.716;8.790;2024-01-11T13:20:22;53.57;;;24.33;;
17251;SDS011;8742;51.716;8.790;2024-01-11T13:22:49;48.10;;;23.33;;
17251;SDS011;8742;51.716;8.790;2024-01-11T13:25:36;49.03;;;23.40;;
17251;SDS011;8742;51.716;8.790;2024-01-11T13:28:03;52.00;;;22.17;;
17251;SDS011;8742;51.716;8.790;2024-01-11T13:30:31;50.80;;;21.53;;
17251;SDS011;8742;51.716;8.790;2024-01-11T13:33:00;47.30;;;19.93;;
17251;SDS011;8742;51.716;8.790;2024-01-11T13:35:26;49.40;;;20.97;;
17251;SDS011;8742;51.716;8.790;2024-01-11T13:37:53;50.60;;;21.70;;
17251;SDS011;8742;51.716;8.790;2024-01-11T13:40:20;47.73;;;20.57;;
17251;SDS011;8742;51.716;8.790;2024-01-11T13:42:47;43.30;;;19.63;;
17251;SDS011;8742;51.716;8.790;2024-01-11T13:45:14;44.53;;;20.20;;
17251;SDS011;8742;51.716;8.790;2024-01-11T13:47:41;47.30;;;19.77;;
17251;SDS011;8742;51.716;8.790;2024-01-11T13:50:09;41.77;;;19.13;;
17251;SDS011;8742;51.716;8.790;2024-01-11T13:52:36;50.40;;;20.37;;
17251;SDS011;8742;51.716;8.790;2024-01-11T13:55:03;36.83;;;18.37;;
17251;SDS011;8742;51.716;8.790;2024-01-11T13:57:30;39.37;;;17.40;;
17251;SDS011;8742;51.716;8.790;2024-01-11T13:59:58;34.87;;;16.33;;
17251;SDS011;8742;51.716;8.790;2024-01-11T14:02:25;37.17;;;16.33;;
17251;SDS011;8742;51.716;8.790;2024-01-11T14:04:52;35.47;;;16.30;;
17251;SDS011;8742;51.716;8.790;2024-01-11T14:07:20;36.47;;;14.70;;
17251;SDS011;8742;51.716;8.790;2024-01-11T14:09:47;31.70;;;12.60;;
17251;SDS011;8742;51.716;8.790;2024-01-11T14:12:14;23.20;;;10.73;;
17251;SDS011;8742;51.716;8.790;2024-01-11T14:14:41;28.97;;;11.57;;
17251;SDS011;8742;51.716;8.790;2024-01-11T14:17:08;23.10;;;10.17;;
17251;SDS011;8742;51.716;8.790;2024-01-11T14:19:35;21.37;;;10.03;;
17251;SDS011;8742;51.716;8.790;2024-01-11T14:22:02;18.47;;;8.97;;
17251;SDS011;8742;51.716;8.790;2024-01-11T14:24:30;16.23;;;7.43;;
17251;SDS011;8742;51.716;8.790;2024-01-11T14:26:58;14.80;;;7.67;;
17251;SDS011;8742;51.716;8.790;2024-01-11T14:29:25;28.27;;;12.23;;
17251;SDS011;8742;51.716;8.790;2024-01-11T14:31:52;35.90;;;15.70;;
17251;SDS011;8742;51.716;8.790;2024-01-11T14:34:18;35.70;;;16.33;;
17251;SDS011;8742;51.716;8.790;2024-01-11T14:36:45;45.63;;;17.73;;
17251;SDS011;8742;51.716;8.790;2024-01-11T14:39:12;38.97;;;16.97;;
17251;SDS011;8742;51.716;8.790;2024-01-11T14:41:40;40.73;;;17.40;;